Time;durP1;ratioP1;P1;durP2;ratioP2;P2;SDS_P1;SDS_P2;PMS_P1;PMS_P2;Temp;Humidity;BMP_temperature;BMP_pressure;BME280_temperature;BME280_humidity;BME280_pressure;Samples;Min_cycle;Max_cycle;Signal;HPM_P1;HPM_P2
2023/01/24 00:00:01;;;;;;;27.43;17.13;;;;;;;6.18;100.00;100811.25;5052744;28;20223;-54
2023/01/24 00:02:28;;;;;;;31.73;17.40;;;;;;;6.08;100.00;100811.53;5052888;28;20618;-54
2023/01/24 00:04:54;;;;;;;28.63;17.20;;;;;;;6.08;100.00;100811.53;5052962;28;20598;-54
2023/01/24 00:07:21;;;;;;;26.07;16.70;;;;;;;6.13;100.00;100808.41;5053041;28;20203;-54
2023/01/24 00:09:48;;;;;;;26.63;18.23;;;;;;;6.07;100.00;100810.63;5052404;28;20222;-54
2023/01/24 00:12:16;;;;;;;28.43;17.60;;;;;;;6.14;100.00;100815.28;5052670;28;20242;-54
2023/01/24 00:14:43;;;;;;;30.13;18.47;;;;;;;6.00;100.00;100818.75;5052719;28;20189;-58
2023/01/24 00:17:10;;;;;;;33.37;18.70;;;;;;;6.04;100.00;100819.81;5052668;28;20681;-54
2023/01/24 00:19:36;;;;;;;25.83;16.70;;;;;;;5.91;100.00;100820.78;5052551;28;20188;-55
2023/01/24 00:22:04;;;;;;;28.47;16.80;;;;;;;5.30;100.00;100706.84;5053418;28;20198;-54
2023/01/24 00:24:32;;;;;;;26.30;16.50;;;;;;;6.02;100.00;100821.38;5052436;28;20210;-54
2023/01/24 00:26:59;;;;;;;26.73;18.80;;;;;;;6.00;100.00;100812.78;5051860;28;20973;-54
2023/01/24 00:29:27;;;;;;;26.93;18.03;;;;;;;5.97;100.00;100823.69;5052436;28;20556;-54
2023/01/24 00:31:54;;;;;;;24.13;17.23;;;;;;;6.02;100.00;100817.16;5052346;28;20195;-54
2023/01/24 00:34:21;;;;;;;24.43;17.23;;;;;;;6.06;100.00;100821.66;5052338;28;20238;-54
2023/01/24 00:36:48;;;;;;;27.87;18.17;;;;;;;6.06;100.00;100821.66;5052320;28;20284;-54
2023/01/24 00:39:15;;;;;;;29.03;17.43;;;;;;;6.07;100.00;100823.38;5052402;28;20188;-54
2023/01/24 00:41:41;;;;;;;26.53;17.10;;;;;;;6.07;100.00;100825.94;5052374;28;20222;-54
2023/01/24 00:44:08;;;;;;;28.03;17.87;;;;;;;6.03;100.00;100808.72;5052341;28;20195;-54
2023/01/24 00:46:36;;;;;;;27.57;17.17;;;;;;;5.96;100.00;100827.03;5052062;28;20201;-54
2023/01/24 00:49:03;;;;;;;25.83;17.20;;;;;;;6.03;100.00;100826.59;5051930;28;20199;-54
2023/01/24 00:51:30;;;;;;;26.73;17.97;;;;;;;6.08;100.00;100821.72;5052975;28;20188;-54
2023/01/24 00:53:57;;;;;;;30.90;18.00;;;;;;;6.08;100.00;100829.38;5051963;28;20202;-54
2023/01/24 00:56:23;;;;;;;30.70;18.47;;;;;;;6.13;100.00;100831.38;5052135;28;20194;-55
2023/01/24 00:58:50;;;;;;;31.13;20.93;;;;;;;6.18;100.00;100827.41;5051961;28;20655;-55
2023/01/24 01:01:17;;;;;;;28.30;17.60;;;;;;;6.22;100.00;100826.78;5051927;28;20269;-55
2023/01/24 01:03:45;;;;;;;34.95;23.55;;;;;;;6.13;100.00;100825.41;5051439;28;20443;-54
2023/01/24 01:06:15;;;;;;;32.87;22.80;;;;;;;6.09;100.00;100826.94;5051732;28;20188;-55
2023/01/24 01:08:42;;;;;;;29.30;18.40;;;;;;;6.00;100.00;100831.50;5052046;28;20184;-55
2023/01/24 01:11:10;;;;;;;29.13;18.43;;;;;;;6.03;100.00;100826.59;5051643;28;20751;-55
2023/01/24 01:13:37;;;;;;;31.57;18.30;;;;;;;5.95;100.00;100825.28;5052134;28;20202;-54
2023/01/24 01:16:05;;;;;;;27.70;17.60;;;;;;;6.00;100.00;100823.84;5051547;28;20362;-53
2023/01/24 01:18:33;;;;;;;31.23;17.87;;;;;;;6.00;100.00;100834.06;5051535;28;20952;-55
2023/01/24 01:21:01;;;;;;;30.20;18.43;;;;;;;6.08;100.00;100829.38;5054080;28;20231;-54
2023/01/24 01:23:28;;;;;;;31.07;18.27;;;;;;;6.02;100.00;100821.38;5056312;28;20203;-54
2023/01/24 01:25:59;;;;;;;30.47;18.70;;;;;;;6.01;100.00;100828.19;5056209;28;20195;-54
2023/01/24 01:28:26;;;;;;;28.33;18.47;;;;;;;6.08;100.00;100829.38;5055902;28;20206;-53
2023/01/24 01:30:53;;;;;;;30.30;19.37;;;;;;;6.12;100.00;100834.75;5055759;28;20249;-53
2023/01/24 01:33:20;;;;;;;28.27;17.70;;;;;;;6.01;100.00;100827.28;5056437;28;20621;-53
2023/01/24 01:35:48;;;;;;;32.93;19.90;;;;;;;5.94;100.00;100824.41;5055967;28;20269;-53
2023/01/24 01:38:16;;;;;;;31.60;19.23;;;;;;;5.83;100.00;100791.41;5055800;28;20528;-53
2023/01/24 01:40:43;;;;;;;29.60;18.30;;;;;;;5.98;100.00;100825.44;5052830;28;20220;-52
2023/01/24 01:43:13;;;;;;;32.07;19.73;;;;;;;5.78;100.00;100780.94;5055519;28;20193;-53
2023/01/24 01:45:42;;;;;;;28.17;17.93;;;;;;;6.04;100.00;100836.00;5055528;28;20193;-53
2023/01/24 01:48:22;;;;;;;32.70;17.70;;;;;;;6.06;100.00;100829.31;5055598;28;20329;-53
2023/01/24 01:50:54;;;;;;;33.80;18.23;;;;;;;5.96;100.00;100821.06;5055332;28;20198;-53
2023/01/24 01:53:24;;;;;;;27.13;15.87;;;;;;;5.90;100.00;100826.69;5055498;28;20196;-53
2023/01/24 01:55:58;;;;;;;29.63;20.50;;;;;;;5.83;100.00;100824.53;5054253;28;20914;-53
2023/01/24 01:58:25;;;;;;;28.27;18.90;;;;;;;5.90;100.00;100821.59;5055144;28;20668;-53
2023/01/24 02:00:52;;;;;;;23.57;16.67;;;;;;;5.87;100.00;100822.31;5055018;28;20219;-53
2023/01/24 02:03:40;;;;;;;24.73;17.10;;;;;;;5.79;100.00;100825.19;5054324;28;20713;-54
2023/01/24 02:06:17;;;;;;;32.47;17.33;;;;;;;5.79;100.00;100832.84;5055324;28;20582;-53
2023/01/24 02:08:45;;;;;;;30.07;17.63;;;;;;;5.73;100.00;100817.19;5036095;28;20210;-53
2023/01/24 02:16:56;;;;;;;23.33;15.37;;;;;;;5.80;100.00;100824.38;5048600;28;20335;-53
2023/01/24 02:19:43;;;;;;;28.53;17.30;;;;;;;5.89;100.00;100841.13;5054713;28;20200;-53
2023/01/24 02:22:16;;;;;;;23.30;15.43;;;;;;;5.91;100.00;100836.97;5055026;28;20600;-53
2023/01/24 02:24:53;;;;;;;21.87;15.83;;;;;;;5.81;99.86;100844.88;5054783;28;20186;-54
2023/01/24 02:27:21;;;;;;;27.23;16.07;;;;;;;5.73;100.00;100843.56;5054707;28;20194;-53
2023/01/24 02:29:48;;;;;;;26.77;16.70;;;;;;;5.80;100.00;100849.88;5054724;28;20200;-53
2023/01/24 02:32:18;;;;;;;25.40;16.67;;;;;;;5.72;100.00;100846.91;5054836;28;20203;-53
2023/01/24 02:34:45;;;;;;;23.67;16.60;;;;;;;5.71;100.00;100840.03;5054759;28;20214;-54
2023/01/24 02:37:14;;;;;;;24.03;14.83;;;;;;;5.66;100.00;100853.34;5054484;28;20223;-54
2023/01/24 02:39:51;;;;;;;23.07;15.07;;;;;;;5.57;100.00;100840.94;5054544;28;20191;-54
2023/01/24 02:42:22;;;;;;;25.57;16.47;;;;;;;5.53;100.00;100848.31;5055095;28;20223;-54
2023/01/24 02:44:53;;;;;;;32.63;17.13;;;;;;;5.49;100.00;100836.19;5054341;28;20293;-54
2023/01/24 02:47:20;;;;;;;26.03;16.23;;;;;;;5.63;100.00;100848.91;5054797;28;20556;-54
2023/01/24 02:49:47;;;;;;;27.07;15.40;;;;;;;5.48;100.00;100853.16;5054439;28;20190;-54
2023/01/24 02:54:58;;;;;;;23.93;15.03;;;;;;;5.36;100.00;100850.75;5054706;28;20659;-54
2023/01/24 03:00:12;;;;;;;22.87;14.67;;;;;;;5.36;100.00;100850.75;5054478;28;20204;-55
2023/01/24 03:02:39;;;;;;;22.20;15.13;;;;;;;5.40;100.00;100845.84;5054061;28;20575;-53
2023/01/24 03:05:06;;;;;;;24.93;14.17;;;;;;;5.22;100.00;100851.63;5054665;28;20267;-54
2023/01/24 03:07:41;;;;;;;24.33;16.20;;;;;;;5.16;100.00;100836.00;5053936;28;20195;-54
2023/01/24 03:10:10;;;;;;;22.70;15.67;;;;;;;5.26;100.00;100853.56;5054360;28;20194;-54
2023/01/24 03:34:45;;;;;;;26.87;16.97;;;;;;;5.52;100.00;100846.56;5053699;28;20328;-54
2023/01/24 03:37:12;;;;;;;27.93;15.97;;;;;;;5.24;100.00;100790.56;5053440;28;20347;-53
2023/01/24 03:39:53;;;;;;;28.73;15.77;;;;;;;5.34;100.00;100844.69;5053588;28;20200;-53
2023/01/24 03:42:20;;;;;;;28.43;16.83;;;;;;;5.35;100.00;100843.03;5052719;28;20228;-53
2023/01/24 03:44:48;;;;;;;23.90;15.77;;;;;;;5.41;100.00;100842.53;5052810;28;20674;-53
2023/01/24 03:47:15;;;;;;;25.67;16.13;;;;;;;5.43;100.00;100843.47;5053295;28;20244;-53
2023/01/24 03:52:27;;;;;;;28.80;15.10;;;;;;;5.35;100.00;100838.84;5053332;28;20240;-54
2023/01/24 03:54:54;;;;;;;27.17;15.67;;;;;;;5.42;100.00;100836.59;5052769;28;20568;-54
2023/01/24 03:57:21;;;;;;;24.73;14.97;;;;;;;5.50;100.00;100848.13;5053746;28;20250;-54
2023/01/24 03:59:49;;;;;;;27.47;15.13;;;;;;;5.48;100.00;100842.06;5052839;28;20249;-53
2023/01/24 04:02:16;;;;;;;22.37;14.47;;;;;;;5.34;100.00;100851.47;5052722;28;20698;-54
2023/01/24 04:07:27;;;;;;;21.50;14.13;;;;;;;5.24;100.00;100838.97;5052901;28;20297;-54
2023/01/24 04:09:54;;;;;;;20.17;13.00;;;;;;;5.28;100.00;100835.81;5052837;28;20186;-53
2023/01/24 04:12:21;;;;;;;20.97;14.77;;;;;;;5.28;100.00;100838.34;5052348;28;20664;-55
2023/01/24 04:14:49;;;;;;;21.37;14.63;;;;;;;5.27;100.00;100839.16;5052441;28;20206;-53
2023/01/24 04:17:16;;;;;;;21.60;13.50;;;;;;;5.15;100.00;100829.13;5052940;28;20193;-54
2023/01/24 04:19:43;;;;;;;20.53;13.70;;;;;;;5.11;100.00;100821.22;5052507;28;20195;-54
2023/01/24 04:22:10;;;;;;;21.73;13.60;;;;;;;5.04;100.00;100829.28;5052458;28;20223;-54
2023/01/24 04:24:36;;;;;;;17.87;13.80;;;;;;;5.14;100.00;100837.56;5052242;28;20189;-54
2023/01/24 04:27:03;;;;;;;28.47;15.00;;;;;;;5.09;100.00;100845.72;5052523;28;20579;-54
2023/01/24 04:29:30;;;;;;;22.07;14.07;;;;;;;5.00;100.00;100838.41;5052371;28;20683;-54
2023/01/24 04:31:58;;;;;;;27.53;17.47;;;;;;;5.02;100.00;100841.94;5052219;28;20258;-53
2023/01/24 04:34:25;;;;;;;32.77;20.20;;;;;;;5.09;100.00;100844.03;5050981;28;20192;-53
2023/01/24 04:36:52;;;;;;;27.37;17.20;;;;;;;5.14;100.00;100842.66;5032437;28;20235;-53
2023/01/24 04:39:18;;;;;;;28.42;18.83;;;;;;;5.15;100.00;100843.53;5044405;28;20428;-54
2023/01/24 04:41:45;;;;;;;21.43;16.17;;;;;;;5.26;100.00;100848.47;5032019;28;20694;-53
2023/01/24 04:44:12;;;;;;;23.40;15.30;;;;;;;5.14;100.00;100845.19;5032328;28;20662;-53
2023/01/24 04:46:39;;;;;;;24.97;15.17;;;;;;;5.11;100.00;100847.56;5032196;28;20200;-54
2023/01/24 04:49:07;;;;;;;19.90;14.10;;;;;;;5.07;100.00;100843.09;5036740;28;20276;-54
2023/01/24 04:51:34;;;;;;;20.43;14.57;;;;;;;5.05;100.00;100844.66;5042733;28;20199;-54
2023/01/24 04:54:01;;;;;;;22.67;16.57;;;;;;;5.03;100.00;100845.34;5038785;28;20195;-54
2023/01/24 04:56:27;;;;;;;22.47;14.87;;;;;;;4.99;100.00;100841.75;5041844;28;20201;-55
2023/01/24 04:58:54;;;;;;;22.73;14.13;;;;;;;5.06;100.00;100853.16;5050844;28;20190;-54
2023/01/24 05:01:21;;;;;;;21.57;14.60;;;;;;;5.09;100.00;100841.50;5047117;28;20309;-54
2023/01/24 05:03:48;;;;;;;22.57;15.17;;;;;;;5.07;100.00;100850.72;5051118;28;20188;-54
2023/01/24 05:06:16;;;;;;;22.23;14.07;;;;;;;5.11;100.00;100846.69;5049374;28;20196;-54
2023/01/24 05:08:43;;;;;;;19.87;14.30;;;;;;;5.10;100.00;100847.47;5051529;28;20210;-54
2023/01/24 05:11:09;;;;;;;24.30;15.37;;;;;;;5.11;100.00;100845.00;5051232;28;20192;-54
2023/01/24 05:13:36;;;;;;;21.27;14.53;;;;;;;5.07;100.00;100860.03;5051564;28;20198;-55
2023/01/24 05:16:04;;;;;;;22.17;15.23;;;;;;;4.84;100.00;100845.91;5048223;28;20225;-54
2023/01/24 05:18:30;;;;;;;20.57;14.67;;;;;;;4.96;100.00;100861.06;5031709;28;20194;-53
2023/01/24 05:21:05;;;;;;;21.70;15.77;;;;;;;4.97;100.00;100865.38;5031279;28;20249;-63
2023/01/24 05:23:33;;;;;;;22.20;15.87;;;;;;;5.01;100.00;100862.19;5031523;28;20253;-54
2023/01/24 05:26:01;;;;;;;26.20;15.57;;;;;;;5.03;100.00;100863.16;5031445;28;20578;-54
2023/01/24 05:28:28;;;;;;;24.57;15.93;;;;;;;5.09;100.00;100864.44;5031606;28;20192;-54
2023/01/24 05:30:59;;;;;;;20.70;14.33;;;;;;;4.89;100.00;100836.88;5031493;28;20605;-54
2023/01/24 05:33:25;;;;;;;23.03;14.67;;;;;;;5.06;100.00;100860.81;5031616;28;20190;-55
2023/01/24 05:35:58;;;;;;;25.97;15.03;;;;;;;4.97;100.00;100867.91;5037026;28;20218;-54
2023/01/24 05:38:25;;;;;;;19.93;13.90;;;;;;;4.87;100.00;100868.13;5051641;28;20195;-54
2023/01/24 05:40:53;;;;;;;19.93;14.67;;;;;;;4.87;100.00;100868.13;5050787;28;20199;-54
2023/01/24 05:43:20;;;;;;;25.03;16.57;;;;;;;4.81;100.00;100871.19;5051433;28;20239;-55
2023/01/24 05:45:47;;;;;;;20.20;13.30;;;;;;;4.61;100.00;100875.09;5051556;28;20254;-54
2023/01/24 05:48:14;;;;;;;17.43;13.33;;;;;;;4.62;100.00;100868.31;5051587;28;20191;-54
2023/01/24 05:50:40;;;;;;;20.93;14.50;;;;;;;4.67;100.00;100877.09;5051515;28;20204;-54
2023/01/24 05:53:07;;;;;;;21.80;12.63;;;;;;;4.65;100.00;100881.22;5051674;28;20614;-55
2023/01/24 05:55:34;;;;;;;20.50;14.30;;;;;;;4.72;100.00;100884.22;5052165;28;20243;-54
2023/01/24 05:58:02;;;;;;;19.37;14.20;;;;;;;4.69;100.00;100885.72;5051384;28;20199;-55
2023/01/24 06:00:29;;;;;;;22.60;13.43;;;;;;;4.78;100.00;100886.28;5044829;28;20220;-54
2023/01/24 06:03:01;;;;;;;17.80;12.83;;;;;;;4.64;100.00;100856.56;5042074;28;20223;-54
2023/01/24 06:05:27;;;;;;;18.70;13.27;;;;;;;4.65;100.00;100888.84;5046687;28;20203;-55
2023/01/24 06:07:54;;;;;;;21.80;15.67;;;;;;;4.73;100.00;100892.75;5054607;28;20193;-55
2023/01/24 06:10:21;;;;;;;19.07;13.97;;;;;;;4.84;100.00;100908.69;5054608;28;20199;-54
2023/01/24 06:12:48;;;;;;;21.53;14.70;;;;;;;4.76;99.67;100898.91;5054884;28;20199;-54
2023/01/24 06:15:16;;;;;;;21.27;15.10;;;;;;;4.78;99.64;100918.50;5054681;28;20191;-54
2023/01/24 06:17:43;;;;;;;19.70;14.17;;;;;;;4.80;100.00;100902.53;5054559;28;20290;-55
2023/01/24 06:20:12;;;;;;;21.40;15.37;;;;;;;4.72;100.00;100880.84;5054654;28;20190;-54
2023/01/24 06:22:45;;;;;;;19.53;14.10;;;;;;;4.85;100.00;100903.69;5054356;28;20223;-54
2023/01/24 06:25:20;;;;;;;22.00;13.40;;;;;;;4.73;100.00;100921.63;5054630;28;20197;-55
2023/01/24 06:27:47;;;;;;;24.90;15.50;;;;;;;4.53;100.00;100919.50;5054404;28;20195;-55
2023/01/24 06:30:16;;;;;;;18.77;14.63;;;;;;;4.58;100.00;100917.28;5054756;28;20234;-54
2023/01/24 06:33:03;;;;;;;18.47;14.50;;;;;;;4.71;100.00;100912.16;5054715;28;20198;-54
2023/01/24 06:35:37;;;;;;;22.67;15.47;;;;;;;4.56;100.00;100916.31;5054459;28;20199;-54
2023/01/24 06:38:05;;;;;;;17.90;13.37;;;;;;;4.66;100.00;100918.63;5054034;28;20193;-55
2023/01/24 06:40:32;;;;;;;21.63;15.13;;;;;;;4.74;100.00;100925.97;5053803;28;20195;-56
2023/01/24 06:42:59;;;;;;;24.03;15.63;;;;;;;4.83;100.00;100932.41;5053796;28;20227;-54
2023/01/24 06:45:27;;;;;;;19.37;14.70;;;;;;;4.76;100.00;100926.03;5053962;28;20187;-55
2023/01/24 06:47:55;;;;;;;19.80;13.90;;;;;;;4.86;99.28;100935.13;5053736;28;20651;-54
2023/01/24 06:50:23;;;;;;;23.70;15.53;;;;;;;4.76;99.56;100933.69;5053777;28;20666;-54
2023/01/24 06:52:50;;;;;;;23.17;19.23;;;;;;;4.84;100.00;100923.97;5052536;28;20439;-55
2023/01/24 06:55:17;;;;;;;19.67;16.70;;;;;;;5.06;99.32;100943.19;5053576;28;20201;-54
2023/01/24 06:57:46;;;;;;;22.10;14.90;;;;;;;5.12;99.38;100937.59;5053655;28;20190;-55
2023/01/24 07:00:14;;;;;;;22.67;15.60;;;;;;;4.89;98.17;100943.81;5054200;28;20189;-56
2023/01/24 07:02:42;;;;;;;23.27;16.07;;;;;;;4.75;98.11;100945.53;5053597;28;20293;-55
2023/01/24 07:05:10;;;;;;;24.10;15.77;;;;;;;4.73;99.27;100949.66;5052114;28;20201;-56
2023/01/24 07:07:36;;;;;;;21.13;13.93;;;;;;;4.67;99.10;100945.81;5053195;28;20202;-56
2023/01/24 07:10:04;;;;;;;27.40;15.43;;;;;;;4.52;99.18;100938.13;5053361;28;20189;-56
2023/01/24 07:12:30;;;;;;;20.20;14.43;;;;;;;4.67;99.74;100944.16;5053467;28;20201;-55
2023/01/24 07:14:57;;;;;;;16.77;12.50;;;;;;;4.53;99.08;100909.31;5053587;28;20597;-56
2023/01/24 07:17:25;;;;;;;21.50;14.80;;;;;;;4.66;98.35;100952.59;5053006;28;20197;-55
2023/01/24 07:19:54;;;;;;;18.57;12.93;;;;;;;4.66;98.58;100954.25;5053268;28;20195;-55
2023/01/24 07:22:21;;;;;;;17.80;13.67;;;;;;;4.58;98.23;100956.34;5053110;28;20666;-54
2023/01/24 07:24:49;;;;;;;18.10;13.53;;;;;;;4.67;99.01;100976.38;5053465;28;20248;-55
2023/01/24 07:27:16;;;;;;;24.40;14.53;;;;;;;4.73;98.49;100959.81;5053289;28;20199;-55
2023/01/24 07:29:43;;;;;;;19.67;14.27;;;;;;;4.70;97.81;100963.84;5053372;28;20197;-55
2023/01/24 07:32:10;;;;;;;18.53;13.83;;;;;;;4.85;97.71;100969.91;5053147;28;20197;-55
2023/01/24 07:34:37;;;;;;;18.83;12.50;;;;;;;4.84;96.78;100960.50;5051967;28;20186;-56
2023/01/24 07:37:07;;;;;;;17.00;12.30;;;;;;;4.99;96.20;100971.66;5048095;28;20288;-55
2023/01/24 07:39:34;;;;;;;16.53;12.77;;;;;;;4.97;95.37;100960.44;5052869;28;20202;-55
2023/01/24 07:42:01;;;;;;;14.80;11.68;;;;;;;4.89;93.93;100965.91;5039807;28;20459;-55
2023/01/24 07:44:27;;;;;;;15.93;11.13;;;;;;;4.78;94.43;100973.72;5044791;28;20251;-56
2023/01/24 07:46:54;;;;;;;21.60;12.47;;;;;;;4.83;94.25;100971.47;5052930;28;20194;-55
2023/01/24 07:49:21;;;;;;;17.60;11.63;;;;;;;4.83;94.30;100963.84;5052686;28;20205;-55
2023/01/24 07:51:48;;;;;;;17.07;12.53;;;;;;;4.89;94.30;100976.94;5052698;28;20185;-55
2023/01/24 07:54:19;;;;;;;14.90;10.10;;;;;;;4.85;93.27;100985.19;5052704;28;20187;-55
2023/01/24 07:56:46;;;;;;;18.10;10.95;;;;;;;4.73;92.61;100979.31;5052572;28;20512;-54
2023/01/24 07:59:13;;;;;;;14.83;10.20;;;;;;;4.71;92.59;100988.53;5052717;28;20189;-55
2023/01/24 08:01:40;;;;;;;14.47;10.53;;;;;;;4.73;92.32;100982.75;5052595;28;20193;-55
2023/01/24 08:04:07;;;;;;;17.00;9.83;;;;;;;4.78;92.46;100997.44;5053186;28;20228;-54
2023/01/24 08:06:34;;;;;;;17.07;10.13;;;;;;;4.70;92.35;100994.38;5052348;28;20197;-55
2023/01/24 08:09:00;;;;;;;15.93;10.40;;;;;;;4.76;92.16;100993.13;5052695;28;20198;-54
2023/01/24 08:11:29;;;;;;;15.23;10.53;;;;;;;4.82;91.00;100996.84;5048763;28;20191;-54
2023/01/24 08:13:55;;;;;;;16.60;10.67;;;;;;;4.78;90.80;100983.03;5044484;28;20206;-55
2023/01/24 08:16:25;;;;;;;20.53;10.80;;;;;;;4.85;91.58;100999.56;5042454;28;20217;-55
2023/01/24 08:18:52;;;;;;;14.63;8.67;;;;;;;5.06;90.68;100998.34;5044912;28;20653;-55
2023/01/24 08:21:19;;;;;;;17.67;8.90;;;;;;;4.83;89.47;101001.16;5041828;28;20192;-55
2023/01/24 08:23:45;;;;;;;17.80;10.13;;;;;;;4.80;89.05;101000.97;5040520;28;20206;-55
2023/01/24 08:26:12;;;;;;;17.43;10.03;;;;;;;4.78;90.19;100967.75;5040647;28;20187;-55
2023/01/24 08:28:40;;;;;;;19.30;9.97;;;;;;;5.01;89.63;100995.53;5041385;28;20248;-55
2023/01/24 08:31:07;;;;;;;14.17;10.53;;;;;;;5.14;88.75;100994.59;5042350;28;20201;-55
2023/01/24 08:33:37;;;;;;;13.73;9.93;;;;;;;5.08;88.33;100986.63;5040542;28;20620;-55
2023/01/24 08:36:05;;;;;;;15.77;10.60;;;;;;;5.19;88.63;100983.91;5040683;28;20696;-55
2023/01/24 08:38:32;;;;;;;16.03;11.00;;;;;;;5.15;87.83;100986.19;5040421;28;20193;-54
2023/01/24 08:40:59;;;;;;;17.20;10.03;;;;;;;4.84;88.03;100970.69;5041473;28;20199;-54
2023/01/24 08:43:25;;;;;;;16.63;10.37;;;;;;;4.97;89.04;100995.25;5042081;28;20221;-54
2023/01/24 08:45:56;;;;;;;20.17;11.60;;;;;;;5.00;89.33;100986.13;5042171;28;20181;-54
2023/01/24 08:48:23;;;;;;;17.67;11.00;;;;;;;5.19;88.92;100991.56;5041917;28;20213;-54
2023/01/24 08:50:50;;;;;;;14.00;10.80;;;;;;;5.17;88.19;100990.59;5040026;28;20252;-54
2023/01/24 08:53:16;;;;;;;21.17;11.00;;;;;;;5.32;87.73;101006.84;5041364;28;20186;-55
2023/01/24 08:55:43;;;;;;;17.40;10.43;;;;;;;5.18;88.07;101001.66;5041742;28;20267;-54
2023/01/24 08:58:10;;;;;;;15.17;11.63;;;;;;;5.28;87.60;101007.41;5039912;28;20187;-55
2023/01/24 09:00:37;;;;;;;17.23;11.57;;;;;;;5.42;87.71;101003.16;5035292;28;20197;-55
2023/01/24 09:03:05;;;;;;;17.57;12.37;;;;;;;5.52;86.54;101004.59;5031565;28;20269;-55
2023/01/24 09:05:33;;;;;;;18.23;10.07;;;;;;;5.43;85.49;101002.38;5031594;28;20249;-55
2023/01/24 09:08:00;;;;;;;18.40;10.70;;;;;;;5.28;86.42;101006.53;5031842;28;20301;-55
2023/01/24 09:10:27;;;;;;;16.63;9.90;;;;;;;5.25;86.85;100993.59;5032388;28;20192;-54
2023/01/24 09:12:54;;;;;;;16.43;9.40;;;;;;;5.25;86.16;100997.03;5041949;28;21471;-55
2023/01/24 09:15:20;;;;;;;14.17;10.03;;;;;;;5.28;86.20;101002.31;5046900;28;20190;-55
2023/01/24 09:17:47;;;;;;;14.23;9.87;;;;;;;5.32;86.51;101001.75;5044333;28;20189;-56
2023/01/24 09:20:16;;;;;;;14.77;9.47;;;;;;;5.24;86.17;100990.19;5041154;28;20189;-55
2023/01/24 09:22:43;;;;;;;12.73;9.13;;;;;;;5.37;86.44;100999.47;5041582;28;20241;-54
2023/01/24 09:25:11;;;;;;;25.80;11.93;;;;;;;5.34;86.02;100976.34;5040841;28;20203;-54
2023/01/24 09:27:40;;;;;;;13.93;10.17;;;;;;;5.38;85.79;100991.03;5039765;28;20190;-56
2023/01/24 09:30:08;;;;;;;15.17;10.30;;;;;;;5.31;85.56;100992.31;5040681;28;20203;-57
2023/01/24 09:32:35;;;;;;;17.55;13.35;;;;;;;5.54;84.85;100983.53;5040705;28;20476;-56
2023/01/24 09:35:03;;;;;;;19.37;11.17;;;;;;;5.72;84.15;100988.81;5040611;28;20199;-54
2023/01/24 09:37:31;;;;;;;15.37;10.40;;;;;;;5.76;83.90;100981.44;5039762;28;20215;-55
2023/01/24 09:39:59;;;;;;;13.83;10.03;;;;;;;5.75;82.61;100986.44;5040688;28;20247;-54
2023/01/24 09:42:33;;;;;;;15.87;9.37;;;;;;;5.74;83.75;100979.59;5042882;28;20267;-54
2023/01/24 09:45:13;;;;;;;15.60;11.43;;;;;;;5.85;83.19;100978.59;5048523;28;20199;-55
2023/01/24 09:47:47;;;;;;;12.37;9.53;;;;;;;6.00;83.39;100979.47;5045484;28;20187;-54
2023/01/24 09:50:17;;;;;;;15.97;10.07;;;;;;;6.17;81.92;100977.91;5044026;28;20183;-54
2023/01/24 09:52:49;;;;;;;12.33;9.60;;;;;;;6.12;81.25;100985.28;5043498;28;20201;-55
2023/01/24 09:55:22;;;;;;;17.20;10.10;;;;;;;6.08;81.55;100980.78;5044374;28;20198;-54
2023/01/24 09:57:54;;;;;;;15.27;8.17;;;;;;;6.24;81.07;100973.22;5042838;28;20185;-55
2023/01/24 10:00:25;;;;;;;16.15;10.30;;;;;;;6.30;81.64;100980.34;5044012;28;20506;-54
2023/01/24 10:02:55;;;;;;;14.23;8.57;;;;;;;6.43;80.29;100987.88;5043366;28;20220;-55
2023/01/24 10:05:26;;;;;;;11.63;9.57;;;;;;;6.45;79.50;100982.13;5043912;28;20189;-55
2023/01/24 10:08:06;;;;;;;13.43;9.77;;;;;;;6.55;79.44;100988.59;5046711;28;20199;-54
2023/01/24 10:10:45;;;;;;;12.03;9.53;;;;;;;6.60;79.38;100969.28;5045710;28;20583;-54
2023/01/24 10:13:24;;;;;;;14.77;8.97;;;;;;;6.51;79.11;100977.31;5054375;28;20206;-55
2023/01/24 10:16:00;;;;;;;16.77;9.93;;;;;;;6.45;78.87;100969.34;5052610;28;20199;-55
2023/01/24 10:18:42;;;;;;;11.87;8.80;;;;;;;6.32;78.92;100965.97;5037965;28;20733;-56
2023/01/24 10:21:31;;;;;;;17.73;9.60;;;;;;;6.18;79.41;100951.59;5044773;28;20259;-55
2023/01/24 10:24:02;;;;;;;13.77;8.77;;;;;;;6.17;79.01;100955.81;5034073;28;20230;-54
2023/01/24 10:26:34;;;;;;;12.97;8.60;;;;;;;6.05;79.01;100938.91;5044529;28;20217;-54
2023/01/24 10:29:11;;;;;;;9.43;7.80;;;;;;;6.02;79.61;100957.47;5050390;28;20301;-54
2023/01/24 10:31:41;;;;;;;11.63;8.77;;;;;;;6.10;79.63;100948.59;5054297;28;20198;-54
2023/01/24 10:34:13;;;;;;;10.33;8.17;;;;;;;6.08;80.10;100950.19;5053039;28;20592;-54
2023/01/24 10:36:45;;;;;;;9.70;8.13;;;;;;;6.15;78.96;100938.66;5039861;28;20304;-54
2023/01/24 10:39:14;;;;;;;12.60;9.10;;;;;;;6.10;79.43;100933.28;5054315;28;20191;-55
2023/01/24 10:41:41;;;;;;;18.03;11.87;;;;;;;6.17;79.50;100937.94;5053579;28;20196;-54
2023/01/24 10:44:15;;;;;;;23.63;14.13;;;;;;;6.29;79.08;100930.97;5045634;28;20216;-54
2023/01/24 10:47:21;;;;;;;17.33;11.27;;;;;;;6.45;78.76;100925.94;5046925;28;20243;-55
2023/01/24 10:49:54;;;;;;;11.73;8.63;;;;;;;6.13;77.60;100930.91;5029307;28;20195;-54
2023/01/24 10:52:23;;;;;;;13.93;8.37;;;;;;;6.09;78.88;100928.09;5047042;28;20199;-54
2023/01/24 10:54:53;;;;;;;15.77;9.70;;;;;;;6.17;79.20;100927.75;5051737;28;20333;-54
2023/01/24 10:57:36;;;;;;;14.03;9.67;;;;;;;6.36;78.86;100917.78;5053729;28;20189;-56
2023/01/24 11:00:26;;;;;;;12.73;9.07;;;;;;;6.32;77.89;100931.13;5054061;28;20196;-55
2023/01/24 11:02:55;;;;;;;18.13;11.27;;;;;;;5.90;77.50;100824.16;5043299;28;20194;-55
2023/01/24 11:05:24;;;;;;;11.40;9.27;;;;;;;6.59;77.11;100921.59;5053374;28;20197;-55
2023/01/24 11:07:53;;;;;;;13.87;10.43;;;;;;;6.53;76.77;100911.94;5053240;28;20200;-55
2023/01/24 11:10:24;;;;;;;15.93;10.23;;;;;;;6.76;77.37;100914.81;5053138;28;20673;-55
2023/01/24 11:12:54;;;;;;;11.83;8.67;;;;;;;6.90;76.77;100914.75;5046076;28;20191;-55
2023/01/24 11:15:24;;;;;;;12.23;9.90;;;;;;;6.86;75.99;100911.97;5036907;28;20196;-56
2023/01/24 11:17:57;;;;;;;11.70;7.47;;;;;;;6.95;75.74;100915.03;5032934;28;20250;-55
2023/01/24 11:20:31;;;;;;;13.40;8.50;;;;;;;6.76;75.52;100864.63;5035206;28;20191;-55
2023/01/24 11:23:15;;;;;;;9.30;7.00;;;;;;;6.84;75.00;100882.94;5033780;28;20353;-55
2023/01/24 11:25:57;;;;;;;11.40;6.83;;;;;;;6.85;75.25;100903.44;5033290;28;20195;-55
2023/01/24 11:28:25;;;;;;;13.00;8.17;;;;;;;6.92;75.60;100905.50;5033045;28;20568;-55
2023/01/24 11:30:52;;;;;;;9.90;7.47;;;;;;;6.86;75.01;100896.66;5032880;28;20633;-55
2023/01/24 11:33:50;;;;;;;12.70;8.60;;;;;;;7.03;75.23;100896.72;5032979;28;20195;-55
2023/01/24 11:36:28;;;;;;;17.57;12.53;;;;;;;7.04;73.84;100900.16;5033466;28;20220;-55
2023/01/24 11:39:01;;;;;;;14.60;10.23;;;;;;;7.03;74.23;100888.22;5044698;28;20261;-56
2023/01/24 11:41:35;;;;;;;20.80;11.17;;;;;;;7.11;74.70;100900.56;5043249;28;20194;-56
2023/01/24 11:44:32;;;;;;;17.13;12.07;;;;;;;6.97;75.18;100893.88;5046834;28;20223;-55
2023/01/24 11:47:08;;;;;;;15.93;11.57;;;;;;;6.93;75.07;100894.50;5044741;28;20208;-56
2023/01/24 11:49:53;;;;;;;13.80;8.93;;;;;;;7.16;74.80;100885.50;5041691;28;20441;-56
2023/01/24 11:52:46;;;;;;;23.60;14.33;;;;;;;7.38;74.27;100890.03;5037897;28;20203;-56
2023/01/24 11:55:25;;;;;;;13.83;7.90;;;;;;;7.27;73.17;100875.81;5032565;28;20249;-55
2023/01/24 11:58:07;;;;;;;10.43;7.27;;;;;;;7.26;72.73;100885.16;5047253;28;20192;-58
2023/01/24 12:00:38;;;;;;;10.07;8.27;;;;;;;6.95;73.77;100846.06;5040090;28;20366;-55
2023/01/24 12:03:26;;;;;;;10.07;7.53;;;;;;;7.20;73.86;100884.81;5036384;28;20207;-55